61. ročník silničního běhu Hronov - Náchod

2018-10-20 Hronov 

archiv

announcement

registration

start list

results

hlavní závod total: 563, men : 395, women: 168, MA: 147, MB: 110, MC: 92, MD: 31, ME: 8, MF: 7, ZA: 71, ZB: 59, ZC: 26, ZD: 12 [html] [pdf]

result list hlavní závod

start ~ 10:59:55

rank rank/cat. # name year state team finish delay
1 1 / ZA [11] Adéla Stránská 1991 CZE Inov-8 team 34:47.8
2 2 / ZA [457] Prashuk Katsiaryna 1991 POL Achiles Leszno 35:10.7 00:22.9
3 3 / ZA [558] martina vévodová 1989 CZE AK Perná 36:13.2 01:25.4
4 1 / ZC [10] Táňa Metelková 1972 CZE TJ Sokol Hradec Králové 36:53.4 02:05.6
5 1 / ZB [356] Marketa Maly 1979 CZE Cukrářky 37:21.1 02:33.3
6 2 / ZB [12] Eva Vítová 1975 CZE SK Nové Město nad Metují 38:56.4 04:08.6
7 4 / ZA [296] Adéla Stráská 1984 CZE Eleven Run Team 39:42.6 04:54.8
8 5 / ZA [573] Anna Kochová 2001 CZE AC TJ Jičín 40:26.7 05:38.9
9 6 / ZA [348] Markéta Zeisková 1998 CZE Rajbas klub Náchod 40:44.9 05:57.1
10 3 / ZB [355] Romana Brumlichová 1976 CZE Medvědí doupě 40:58.8 06:11.0
11 4 / ZB [70] Petra Voborníková Breitrová 1978 CZE SVAZ ČESKÝCH BOHÉMŮ 41:35.8 06:48.0
12 2 / ZC [184] Anna Krátká 1969 CZE Hvězda Pardubice 41:54.4 07:06.6
13 5 / ZB [193] Kateřina Kubiasová 1978 CZE Tyčka a kulička 42:45.5 07:57.7
14 7 / ZA [541] Kamila Šimková 2000 CZE SDH Bohdašín 42:58.8 08:11.0
15 8 / ZA [588] Martina Seifrtová 1984 CZE MM 43:00.9 08:13.1
16 6 / ZB [278] Denisa Rýdlová 1982 CZE Vella team Náchod 43:42.8 08:55.0
17 7 / ZB [45] Denisa Myslivcova 1977 CZE Oblici 43:44.3 08:56.5
18 9 / ZA [128] Lucie Hladíková 1990 CZE SDH Nahořany 43:46.9 08:59.1
19 10 / ZA [451] Radka Zítková 1988 CZE Run4run 43:48.7 09:00.9
20 8 / ZB [564] Klára Šimáková 1983 CZE Hradec Králové 44:07.4 09:19.6
21 11 / ZA [126] Karolína Hermanová 1996 CZE Hermani 44:09.0 09:21.2
22 12 / ZA [337] Veronika Vítková 1989 CZE Náchod 44:19.3 09:31.5
23 9 / ZB [318] Lenka Tomášová 1981 CZE AC Gomango Högner 44:20.0 09:32.2
24 1 / ZD [214] Karla Mališová 1960 CZE Praha 44:22.4 09:34.6
25 3 / ZC [103] Lenka Flašarová 1972 CZE SVAZ ČESKÝCH BOHÉMŮ 44:28.9 09:41.1
26 4 / ZC [157] Jitka Kábrtová 1971 CZE Sokol Studnice 44:35.3 09:47.5
27 2 / ZD [481] Zdeňka Suchánková 1963 CZE Česká Skalice 44:35.6 09:47.8
28 5 / ZC [408] Lenka Křivdová 1972 CZE Sportovní klub hasičů KHK 44:46.3 09:58.5
29 13 / ZA [596] Veronika Nyklíčková 2005 CZE BKL MAchov 45:35.3 10:47.5
30 10 / ZB [192] Terezie Kubečková 1976 CZE SOS Mamuti z Lipovky 45:44.3 10:56.5
31 6 / ZC [120] Markéta Hanzlová 1973 CZE svaz českých bohémů 45:55.8 11:08.0
32 11 / ZB [592] Tereza Tyrychtrová 1981 CZE Batňovice 46:02.1 11:14.3
33 14 / ZA [233] Edita Moudrá 1986 CZE Praha 46:02.6 11:14.8
34 12 / ZB [75] Simona Bubeníčková 1978 CZE BUBUTEAM 46:08.5 11:20.7
35 7 / ZC [607] Zuzana Petr Ernestová 1972 CZE SK Dolar Hajnice 46:28.0 11:40.2
36 15 / ZA [73] Eva Brychová 1984 CZE Dobřany 46:29.6 11:41.8
37 13 / ZB [58] Romana Baškovská 1974 CZE Holky z Vršovky 46:36.5 11:48.7
38 14 / ZB [281] radana sádlová 1975 CZE Rtyně v podkrkonoší 46:49.2 12:01.4
39 15 / ZB [181] Olga Košťálová 1977 CZE Hořice 46:52.2 12:04.4
40 16 / ZA [322] Ema Umlaufová 1997 CZE Náchod 47:44.3 12:56.5
41 16 / ZB [562] Ilona Sedláčková 1977 CZE RUN4FUN 48:04.0 13:16.2
42 17 / ZB [323] Bohumila Valášková 1975 CZE Česká Skalice 48:24.3 13:36.5
43 8 / ZC [270] Jana Rudolfová 1971 CZE Draci Trutnov 48:49.6 14:01.8
44 18 / ZB [534] Eva Kostyšynová 1977 CZE run4run 49:13.5 14:25.7
45 17 / ZA [577] Veronika Langenbergerová 1987 CZE Children Of Olymp 49:13.6 14:25.8
46 18 / ZA [135] Michaela Horníková 1989 CZE Lipí 49:20.3 14:32.5
47 19 / ZA [434] Markéta Šulcová 2001 CZE TJ Sokol Žernov 49:36.1 14:48.3
48 19 / ZB [433] Jana Zelenková 1981 CZE TJ Sokol Žernov 49:42.8 14:55.0
49 20 / ZB [485] Alena Vránová 1980 CZE Easygorun 49:49.9 15:02.1
50 21 / ZB [232] Dana Moravcová 1974 CZE run4run 49:52.8 15:05.0
51 20 / ZA [152] Hedvika Jašíčková 1992 CZE HR Team 49:57.5 15:09.7
52 22 / ZB [171] Ivana Kleinová 1981 CZE SDH Velké Poříčí 49:59.2 15:11.4
53 9 / ZC [304] Eva Šefcová 1964 CZE KOSTKA Racing 50:00.5 15:12.7
54 21 / ZA [81] Veronika Čechová 1986 CZE ZKO Hronov 50:01.5 15:13.7
55 23 / ZB [32] Alena Březinová 1979 CZE Run4run 50:30.3 15:42.5
56 24 / ZB [56] Klára Vítková 1982 CZE Run4run 50:30.7 15:42.9
57 22 / ZA [237] Lenka Netíková 1992 CZE Nové Město nad Metují 50:35.2 15:47.4
58 25 / ZB [540] Markéta Vítová 1982 CZE Tj Sokol Lhota Č.Kostelec 50:36.1 15:48.3
59 23 / ZA [290] Bára Sodomková 2005 CZE SK Plhov Náchod 50:40.7 15:52.9
60 26 / ZB [102] Iveta Filipcová 1974 CZE Nové Město nad Metují 50:45.6 15:57.8
61 10 / ZC [68] Irena Brabencová 1970 CZE Liberec 50:47.3 15:59.5
62 27 / ZB [546] Petra Půlpánová 1976 CZE Náchod 51:03.7 16:15.9
63 3 / ZD [124] Hana Hellerová 1961 CZE Hradec Králové 51:21.2 16:33.4
64 24 / ZA [142] Barbora Hurdálková 1992 CZE Hronov 51:22.5 16:34.7
65 28 / ZB [260] Pavla Rasslová 1979 CZE Praha 51:24.1 16:36.3
66 29 / ZB [127] Irena Herzogová 1977 CZE Náchod 51:36.2 16:48.4
67 25 / ZA [59] Kateřina Baškovská 1994 CZE Holky z Vršovky 51:36.4 16:48.6
68 11 / ZC [219] Jana Matušková 1969 CZE Velká Jesenice 51:40.1 16:52.3
69 30 / ZB [382] Petra Vaňkátová 1982 CZE Wikov 51:40.4 16:52.6
70 26 / ZA [333] Anna Venclová 2001 CZE SPACE 51:49.3 17:01.5
71 12 / ZC [84] Jitka Černá 1964 CZE Nové Město nad Metují 51:51.7 17:03.9
72 27 / ZA [327] Anna Vanclová 2002 CZE SPACE 52:03.4 17:15.6
73 13 / ZC [62] Lenka Beranová 1969 CZE Velké Poříčí 52:22.9 17:35.1
74 28 / ZA [453] Martina Beránková 1987 CZE Hello Kitty Team 52:31.8 17:44.0
75 14 / ZC [265] Marcela Roflíková 1971 CZE Bezstarostný běhodálové 52:40.0 17:52.2
76 15 / ZC [146] Karla Jakoubková 1972 CZE VĚTVE K DRCENÍ 52:44.7 17:56.9
77 29 / ZA [352] Adéla Zoubková 1991 CZE Moravská Třebová 52:46.7 17:58.9
78 30 / ZA [475] Aneta Požárová 1997 CZE Praha 52:47.2 17:59.4
79 31 / ZA [550] Lucie Kramlová 1999 CZE Náchod 53:00.8 18:13.0
80 31 / ZB [315] Jolana Tojnarová 1982 CZE Náchod 53:13.0 18:25.2
81 32 / ZA [312] Lucie Šretrová 2006 CZE SKI Police nad Metují 53:13.4 18:25.6
82 4 / ZD [500] Zdeňka Říhová 1959 CZE Náchod 53:15.7 18:27.9
83 33 / ZA [264] Lucie Repáňová 1999 CZE maminka 53:18.7 18:30.9
84 16 / ZC [410] Radka Práchenská 1971 CZE Hradec Králové 53:21.9 18:34.1
85 34 / ZA [298] Kamila Středová 1992 CZE Velké Poříčí 53:24.3 18:36.5
86 35 / ZA [417] Eliška Shejbalová 2001 CZE SK Plhov Náchod 53:32.7 18:44.9
87 17 / ZC [569] blanka petrů 1972 CZE rychna nad nisou 53:40.6 18:52.8
88 32 / ZB [585] Anna Němcová 1978 CZE Lysečinteam 53:40.7 18:52.9
89 33 / ZB [169] Eva Kirschova 1978 CZE LOKO Trutnov Triatlon Team 54:08.7 19:20.9
90 36 / ZA [78] Eliška Cejnarová 1999 CZE Velká Jesenice 54:14.6 19:26.8
91 37 / ZA [474] Petra Lemfeldová 2002 CZE náchod 54:15.0 19:27.2
92 38 / ZA [491] Adéla Breitrová 2002 CZE SK Nové Město nad Metují 54:25.4 19:37.6
93 39 / ZA [466] Zuzana Sedláčková 2003 CZE SK Nové Město nad Metují 54:26.6 19:38.8
94 18 / ZC [212] Dagmar Malá 1973 CZE Náchod 54:30.3 19:42.5
95 34 / ZB [138] Michaela Hortová 1975 CZE Berger team 54:48.2 20:00.4
96 35 / ZB [514] Petra Jirmanová 1979 CZE Praha 55:00.8 20:13.0
97 5 / ZD [338] Hana Vlachová 1962 CZE Rtyně v Podkrkonoší 55:03.5 20:15.7
98 36 / ZB [172] Zorka Koláčková 1976 CZE Náchod 55:23.7 20:35.9
99 40 / ZA [597] Lucie Celbová 1992 CZE Pell´s Team Brno 55:27.7 20:39.9
100 37 / ZB [132] Žaneta Holečková 1976 CZE Červený Kostelec 55:32.4 20:44.6
101 38 / ZB [211] Jana Machová 1976 CZE Nový Hrádek 55:33.6 20:45.8
102 41 / ZA [176] Benicie Kosková 1992 CZE Koska Family Team 55:39.8 20:52.0
103 39 / ZB [621] Kamila Hanušová 1983 CZE Lhota pod Hořičkami 55:43.5 20:55.7
104 42 / ZA [95] Adéla Dušková 1991 CZE Červený Kostelec 55:45.7 20:57.9
105 40 / ZB [252] Kateřina Polická 1980 CZE Nové Město nad Metují 55:46.5 20:58.7
106 19 / ZC [108] Alena Gloserová 1969 CZE Police nad Metují 55:48.0 21:00.2
107 41 / ZB [537] Šárka Prouzová 1979 CZE Jenštejn 55:48.6 21:00.8
108 43 / ZA [292] Kateřina Stehlíková 1995 CZE Náchod 55:50.2 21:02.4
109 44 / ZA [343] Denisa Vojtasová 2000 CZE Náchod 55:52.4 21:04.6
110 6 / ZD [396] Hana Vacková 1956 CZE TJ Sokol Starkoč 55:54.0 21:06.2
111 7 / ZD [77] Naďa Burdychová 1955 CZE Sokol Burdych 55:59.2 21:11.4
112 45 / ZA [258] Petra Přibylová 1986 CZE Hoky z Vršovky 56:08.3 21:20.5
113 42 / ZB [360] Lucie Seidlová 1981 CZE Wikov 56:12.4 21:24.6
114 43 / ZB [229] Veronika Miskay 1982 CZE Spartan Celakovice 56:22.6 21:34.8
115 46 / ZA [463] Kristýna Kubová 1989 CZE Hronov 56:28.7 21:40.9
116 47 / ZA [275] Hana Rutová 1997 CZE Z3 Sport 56:31.5 21:43.7
117 48 / ZA [210] Alžběta Machová 1992 CZE Náchod 56:36.9 21:49.1
118 20 / ZC [159] Jitka Kahánková 1966 CZE Raketové kecky 56:42.8 21:55.0
119 49 / ZA [85] Sabina Čudová 1991 CZE Náchod 56:43.1 21:55.3
120 21 / ZC [121] Šárka Havlíčková 1970 CZE Hradec Králové 56:44.4 21:56.6
121 44 / ZB [452] Alžběta Valtová 1982 CZE Hello Kitty Team 56:51.4 22:03.6
122 50 / ZA [455] Judita Pavlištová 1987 CZE Hello Kitty Team 56:53.9 22:06.1
123 51 / ZA [288] Kamila Slavíková 1984 CZE Náchod 56:59.0 22:11.2
124 52 / ZA [27] Michaela Balcarová 1984 CZE Praha 57:04.7 22:16.9
125 45 / ZB [118] Lada Hanušová 1981 CZE Náchod 57:22.2 22:34.4
126 46 / ZB [496] Klára Kavanová 1978 CZE Wimex 57:22.7 22:34.9
127 53 / ZA [460] Michaela Sandtnerová 1996 CZE Pinguin 57:33.4 22:45.6
128 54 / ZA [119] Natálie Hanušová 2000 CZE Pitrs bikes 57:37.5 22:49.7
129 55 / ZA [435] Tereza Stehlíková 1997 CZE Náchod 57:53.0 23:05.2
130 22 / ZC [215] Lucie Marková 1966 CZE Třebihošť 57:54.5 23:06.7
131 56 / ZA [143] Renata Hynková 1985 CZE Hynkovka 58:01.4 23:13.6
132 47 / ZB [563] Petra Judová 1975 CZE běhna z Trauče 58:05.7 23:17.9
133 48 / ZB [305] Marcela Šichová 1980 CZE Hradec Králové 58:06.4 23:18.6
134 8 / ZD [182] Ivanka Košťálová 1956 CZE Hořice 58:09.1 23:21.3
135 57 / ZA [313] Jana Šromová 1985 CZE SDH Velké Poříčí 58:14.7 23:26.9
136 9 / ZD [516] Jitka Podstavcová 1962 CZE Hronov 58:21.2 23:33.4
137 58 / ZA [149] Romana Jančíková 1997 CZE Hořice 58:38.8 23:51.0
138 59 / ZA [41] Lenka Králíčková 1989 CZE Hasiči Kramolna NTC 58:51.7 24:03.9
139 60 / ZA [302] Edita Svitáková 1992 CZE Lipí 58:52.5 24:04.7
140 10 / ZD [177] Eliška Kosková 1959 CZE Koska Family Team 59:01.4 24:13.6
141 49 / ZB [504] Daniela Hofmanová 1975 CZE Pivní Fond 59:15.8 24:28.0
142 50 / ZB [512] Anna Baczmańska 1977 POL Opal Kudowa 59:57.6 25:09.8
143 51 / ZB [168] Lucie Kavalkova 1979 CZE Kostelec nad Orlici 01:00:06.6 25:18.8
144 52 / ZB [351] Erika Zoubková 1976 CZE Praha 3 01:00:09.7 25:21.9
145 61 / ZA [570] Vendula Dostálová 2010 CZE Černožice 01:00:47.3 25:59.5
146 62 / ZA [591] Helena švecová 1991 CZE Praha 01:00:55.9 26:08.1
147 23 / ZC [92] Hana Dostálová 1970 CZE Černožice 01:01:25.1 26:37.3
148 63 / ZA [320] Petra Tunklová 1991 CZE Česká Skalice 01:01:30.7 26:42.9
149 53 / ZB [255] Jana Procházková 1975 CZE Velké Poříčí 01:01:54.7 27:06.9
150 11 / ZD [139] Milina Hovorková 1944 CZE TJ Petřiny Praha 01:02:37.1 27:49.3
151 54 / ZB [29] Petra Bartlová 1976 CZE Velké Poříčí 01:03:21.8 28:34.0
152 55 / ZB [23] Renata Bajzová 1975 CZE Česká Skalice 01:03:31.7 28:43.9
153 24 / ZC [324] Dagmar Valentová 1967 CZE chodynka 01:03:36.7 28:48.9
154 56 / ZB [86] Pavlína Divišková 1974 CZE SVAZ ČESKÝCH BOHÉMŮ 01:03:53.3 29:05.5
155 25 / ZC [416] Irena Vítková 1969 CZE Ž3SPORT 01:04:42.5 29:54.7
156 12 / ZD [482] Jana Jiráková 1954 CZE Sokol Starkoč 01:05:30.5 30:42.7
157 64 / ZA [502] Marie Hladíková 1990 CZE Náchod 01:05:33.7 30:45.9
158 65 / ZA [418] Kristyna Nahorna 2003 CZE SK Plhov Náchod 01:05:42.5 30:54.7
159 66 / ZA [426] Veronika Shejbalová 2003 CZE SK Plhov Náchod 01:05:46.3 30:58.5
160 67 / ZA [489] Valérie Simonová 2004 CZE Náchod 01:06:31.1 31:43.3
161 68 / ZA [430] Ester Janková 1993 CZE Náchod 01:07:09.2 32:21.4
162 57 / ZB [35] Martina Horáková 1978 CZE TJ Sokol Náchod 01:07:16.7 32:28.9
163 69 / ZA [297] Martina Strážnická 1991 CZE Rozstání 15, Světlá pod Ještědem 01:07:39.1 32:51.3
164 26 / ZC [239] Renata Nováková 1973 CZE Česká Skalice 01:08:51.3 34:03.5
165 58 / ZB [280] Zuzana Sadílková 1975 CZE BC Nová Trojka 01:10:09.6 35:21.8
166 70 / ZA [423] Adéla Paprskárová 1994 CZE SDH Vršovka 01:10:24.9 35:37.1
167 71 / ZA [72] Nikol Brožová 2002 CZE Česká Skalice 01:12:30.8 37:43.0
168 59 / ZB [561] Markéta Kopčilová 1975 CZE run4fun 01:14:07.6 39:19.8